Latest Weather Observations for Perth

IDW60901

Issued at 2:21 pm WST Saturday 18 September 2021 (issued every 10 minutes, with the page automatically refreshed every 10 minutes)

About weather observations | Map of Perth area stations | Latest observations for Perth area | Other Formats
Station Details ID: 009225 Name: PERTH METRO Lat: -31.92 Lon: 115.87 Height: 24.9 m
Data from the previous 72 hours. | See also: Recent months at Perth
Date/Time
WST
Temp
°C
App
Temp
°C
Dew
Point
°C
Rel
Hum
%
Delta-T
°C
Wind Press
QNH
hPa
Press
MSL
hPa
Rain since
9am
mm
Dir  Spd
km/h
Gust
km/h
Spd
kts
Gust
kts
18/02:00pm 18.9 16.8 11.2 61 4.2 W 13 24 7 13 1022.7 1022.7 0.0
18/01:30pm 20.4 18.1 10.5 53 5.4 WNW 13 24 7 13 1022.9 1022.9 0.0
18/01:00pm 19.9 17.3 9.2 50 5.6 NW 13 24 7 13 1023.1 1023.1 0.0
18/12:30pm 19.6 17.2 10.0 54 5.1 NW 13 28 7 15 1023.5 1023.5 0.0
18/12:00pm 19.6 17.0 9.5 52 5.3 NW 13 28 7 15 1023.8 1023.8 0.0
18/11:30am 19.4 17.0 10.1 55 5.0 NW 13 20 7 11 1024.2 1024.2 0.0
18/11:00am 18.8 16.7 9.6 55 4.8 WNW 11 20 6 11 1024.3 1024.3 0.0
18/10:30am 18.1 16.4 9.7 58 4.4 NNW 9 17 5 9 1024.5 1024.5 0.0
18/10:00am 17.3 15.6 10.0 62 3.8 N 9 15 5 8 1024.6 1024.6 0.0
18/09:30am 16.8 14.6 9.2 61 3.9 N 11 17 6 9 1024.7 1024.7 0.0
18/09:00am 15.4 14.0 9.5 68 3.0 N 7 13 4 7 1024.7 1024.7 0.0
18/08:30am 13.4 11.9 8.3 71 2.5 NNE 6 13 3 7 1024.7 1024.7 0.0
18/08:00am 11.4 10.9 7.9 79 1.7 CALM 0 0 0 0 1024.7 1024.7 0.0
18/07:30am 10.6 10.1 7.7 82 1.4 CALM 0 0 0 0 1024.5 1024.5 0.0
18/07:00am 8.8 8.0 6.6 86 1.0 CALM 0 0 0 0 1024.2 1024.2 0.0
18/06:30am 7.7 6.8 6.0 89 0.8 CALM 0 0 0 0 1024.0 1024.0 0.0
18/06:00am 7.3 6.3 5.6 89 0.8 CALM 0 0 0 0 1023.7 1023.7 0.0
18/05:30am 7.4 6.4 5.7 89 0.8 CALM 0 0 0 0 1023.6 1023.6 0.0
18/05:00am 7.7 6.7 5.8 88 0.9 CALM 0 0 0 0 1023.3 1023.3 0.0
18/04:30am 7.6 6.6 5.7 88 0.9 CALM 0 0 0 0 1023.4 1023.4 0.0
18/04:00am 7.8 6.9 5.9 88 0.9 CALM 0 0 0 0 1023.4 1023.4 0.0
18/03:30am 7.9 7.0 6.0 88 0.9 CALM 0 0 0 0 1023.4 1023.4 0.0
18/03:00am 8.1 7.2 6.1 87 0.9 CALM 0 0 0 0 1023.4 1023.4 0.0
18/02:30am 8.4 7.6 6.5 88 0.9 CALM 0 0 0 0 1023.5 1023.5 0.0
18/02:00am 8.4 7.6 6.7 89 0.8 CALM 0 0 0 0 1023.7 1023.7 0.0
18/01:30am 9.0 8.4 7.5 90 0.7 CALM 0 0 0 0 1023.6 1023.6 0.0
18/01:00am 8.7 8.2 7.8 94 0.4 CALM 0 0 0 0 1023.7 1023.7 0.0
18/12:30am 8.0 7.4 7.4 96 0.3 CALM 0 0 0 0 1023.8 1023.8 0.0
18/12:00am 7.7 7.0 6.8 94 0.4 CALM 0 0 0 0 1024.0 1024.0 0.0
 
Date/Time
WST
Temp
°C
App
Temp
°C
Dew
Point
°C
Rel
Hum
%
Delta-T
°C
Wind Press
QNH
hPa
Press
MSL
hPa
Rain since
9am
mm
Dir  Spd
km/h
Gust
km/h
Spd
kts
Gust
kts
17/11:30pm 8.0 7.3 7.1 94 0.4 CALM 0 0 0 0 1024.1 1024.1 0.0
17/11:00pm 8.1 7.4 7.0 93 0.5 CALM 0 0 0 0 1024.4 1024.4 0.0
17/10:30pm 8.3 7.6 7.1 92 0.6 CALM 0 0 0 0 1024.6 1024.6 0.0
17/10:00pm 8.5 7.8 7.1 91 0.7 CALM 0 0 0 0 1024.5 1024.5 0.0
17/09:30pm 8.8 8.1 6.9 88 0.9 CALM 0 0 0 0 1024.4 1024.4 0.0
17/09:00pm 9.3 8.7 7.3 87 0.9 CALM 0 0 0 0 1024.5 1024.5 0.0
17/08:30pm 9.9 9.3 7.5 85 1.1 CALM 0 0 0 0 1024.6 1024.6 0.0
17/08:00pm 10.3 9.6 7.0 80 1.6 CALM 0 0 0 0 1024.8 1024.8 0.0
17/07:30pm 11.3 10.7 7.2 76 2.0 CALM 0 0 0 0 1024.4 1024.4 0.0
17/07:00pm 12.1 11.3 6.6 69 2.6 CALM 0 0 0 0 1024.2 1024.2 0.0
17/06:30pm 13.2 12.4 6.3 63 3.3 CALM 0 0 0 0 1024.2 1024.2 0.0
17/06:00pm 14.3 13.3 5.7 56 4.1 CALM 0 0 0 0 1023.9 1023.9 0.0
17/05:30pm 15.1 13.0 6.7 57 4.1 WSW 7 11 4 6 1023.5 1023.5 0.0
17/05:00pm 16.2 14.8 7.4 56 4.4 SSW 4 11 2 6 1023.4 1023.4 0.0
17/04:30pm 15.4 14.8 7.4 59 4.0 CALM 0 0 0 0 1023.3 1023.3 0.0
17/04:00pm 15.6 14.8 6.3 54 4.5 CALM 0 0 0 0 1023.3 1023.3 0.0
17/03:30pm 16.0 12.7 6.4 53 4.7 WSW 13 22 7 12 1023.1 1023.1 0.0
17/03:00pm 16.8 13.7 5.4 47 5.5 WSW 11 20 6 11 1022.7 1022.7 0.0
17/02:30pm 17.0 15.1 7.6 54 4.7 SW 7 13 4 7 1022.7 1022.7 0.0
17/02:00pm 16.8 14.2 7.7 55 4.6 W 11 19 6 10 1022.9 1022.9 0.0
17/01:30pm 15.4 13.2 6.4 55 4.4 SW 7 15 4 8 1022.9 1022.9 0.0
17/01:00pm 15.3 12.7 6.3 55 4.3 SSW 9 17 5 9 1023.1 1023.1 0.0
17/12:30pm 16.2 13.6 6.1 51 4.9 SSW 9 17 5 9 1023.2 1023.2 0.0
17/12:00pm 16.4 13.9 4.8 46 5.5 WNW 7 13 4 7 1023.4 1023.4 0.0
17/11:30am 15.3 13.0 5.5 52 4.7 N 7 9 4 5 1023.6 1023.6 0.0
17/11:00am 14.6 12.3 4.9 52 4.5 N 6 9 3 5 1023.8 1023.8 0.0
17/10:30am 15.2 12.7 4.6 49 5.0 N 7 11 4 6 1023.7 1023.7 0.0
17/10:00am 14.5 12.2 5.6 55 4.2 NNW 7 11 4 6 1023.9 1023.9 0.0
17/09:30am 14.1 11.6 6.7 61 3.6 ENE 9 13 5 7 1024.0 1024.0 0.0
17/09:00am 13.2 11.0 6.3 63 3.3 E 7 11 4 6 1024.0 1024.0 3.8
17/08:30am 12.2 10.4 7.1 71 2.5 NE 6 11 3 6 1023.8 1023.8 3.8
17/08:00am 10.9 9.5 7.4 79 1.7 NNE 4 13 2 7 1023.2 1023.2 3.8
17/07:30am 9.5 8.6 7.8 89 0.8 NE 2 7 1 4 1023.0 1023.0 3.8
17/07:00am 7.9 6.6 7.6 98 0.1 S 4 7 2 4 1022.6 1022.6 3.8
17/06:30am 7.2 5.4 7.1 99 0.0 S 6 9 3 5 1022.3 1022.3 3.8
17/06:00am 6.7 4.7 6.4 98 0.1 S 6 7 3 4 1021.7 1021.7 3.8
17/05:30am 7.0 6.3 6.9 99 0.0 CALM 0 0 0 0 1021.5 1021.5 3.6
17/05:00am 6.4 5.5 6.1 98 0.1 CALM 0 0 0 0 1020.9 1020.9 3.6
17/04:30am 6.5 5.2 6.1 97 0.2 S 2 9 1 5 1020.7 1020.7 3.6
17/04:00am 7.1 6.3 6.7 97 0.2 CALM 0 0 0 0 1020.5 1020.5 3.6
17/03:30am 6.7 5.8 6.1 96 0.3 CALM 0 0 0 0 1020.2 1020.2 3.6
17/03:00am 7.2 6.4 6.5 95 0.3 CALM 0 0 0 0 1020.0 1020.0 3.6
17/02:30am 7.7 6.9 6.6 93 0.5 CALM 0 0 0 0 1020.1 1020.1 3.6
17/02:00am 7.6 6.8 6.4 92 0.5 CALM 0 0 0 0 1020.1 1020.1 3.4
17/01:30am 7.7 6.9 6.3 91 0.6 CALM 0 9 0 5 1019.9 1019.9 3.4
17/01:00am 8.1 7.2 6.2 88 0.9 CALM 0 0 0 0 1019.8 1019.8 3.4
17/12:30am 8.5 7.3 6.3 86 1.0 S 2 7 1 4 1019.9 1019.9 3.4
17/12:00am 9.3 8.5 6.6 83 1.3 CALM 0 0 0 0 1019.7 1019.6 3.4
 
Date/Time
WST
Temp
°C
App
Temp
°C
Dew
Point
°C
Rel
Hum
%
Delta-T
°C
Wind Press
QNH
hPa
Press
MSL
hPa
Rain since
9am
mm
Dir  Spd
km/h
Gust
km/h
Spd
kts
Gust
kts
16/11:30pm 9.9 8.5 5.7 75 1.9 S 2 6 1 3 1019.5 1019.4 3.4
16/11:00pm 11.2 8.3 4.9 65 2.9 SSW 9 13 5 7 1019.5 1019.4 3.4
16/10:30pm 11.8 8.4 3.8 58 3.6 SW 11 19 6 10 1019.3 1019.2 3.4
16/10:00pm 11.3 9.4 6.6 73 2.2 SW 6 11 3 6 1019.4 1019.3 3.4
16/09:30pm 11.4 7.8 6.9 74 2.1 SW 15 30 8 16 1019.6 1019.5 3.4
16/09:00pm 11.0 9.2 7.3 78 1.8 SSW 6 9 3 5 1019.4 1019.3 3.2
16/08:30pm 11.6 7.5 6.1 69 2.6 SW 17 30 9 16 1019.4 1019.3 3.2
16/08:00pm 12.9 8.9 0.6 43 5.1 WSW 11 20 6 11 1018.7 1018.6 3.0
16/07:30pm 13.4 8.5 1.7 45 5.1 SW 17 28 9 15 1018.1 1018.0 3.0
16/07:00pm 13.2 9.5 4.6 56 3.9 SW 13 24 7 13 1017.7 1017.6 3.0
16/06:30pm 13.4 8.7 3.2 50 4.6 SW 17 33 9 18 1017.1 1017.0 3.0
16/06:00pm 13.7 8.7 3.8 51 4.5 SW 19 30 10 16 1016.5 1016.4 3.0
16/05:30pm 14.1 8.9 3.8 50 4.7 SW 20 32 11 17 1016.0 1015.9 3.0
16/05:00pm 14.7 9.7 4.7 51 4.7 SW 20 37 11 20 1015.7 1015.6 3.0
16/04:30pm 15.4 10.6 5.6 52 4.7 SW 20 39 11 21 1015.5 1015.4 3.0
16/04:00pm 15.5 10.2 5.1 50 4.9 SW 22 46 12 25 1015.0 1014.9 3.0
16/03:30pm 15.9 10.4 6.1 52 4.7 SW 24 43 13 23 1014.6 1014.5 3.0
16/03:01pm 15.6 9.3 5.8 52 4.7 SW 28 48 15 26 1014.2 1014.1 3.0
16/03:00pm 15.6 9.8 6.1 53 4.6 SW 26 46 14 25 1014.2 1014.1 3.0
16/02:44pm 15.2 8.7 4.9 50 4.8 SW 28 50 15 27 1014.0 1013.9 3.0
16/02:30pm 15.0 8.7 5.8 54 4.4 SW 28 44 15 24 1014.0 1013.9 3.0
16/02:00pm 15.5 10.8 7.8 60 3.9 SW 22 39 12 21 1013.7 1013.6 3.0
16/01:30pm 15.0 11.1 8.7 66 3.2 SW 19 37 10 20 1013.7 1013.6 2.6
16/01:05pm 15.0 9.2 8.0 63 3.5 SW 28 50 15 27 1013.4 1013.3 2.6
16/01:00pm 15.3 9.9 7.8 61 3.7 SW 26 50 14 27 1013.3 1013.2 2.6
16/12:30pm 13.8 13.7 9.6 76 2.2 CALM 0 24 0 13 1013.1 1013.0 2.6
16/12:10pm 14.8 9.1 8.3 65 3.3 WSW 28 76 15 41 1012.9 1012.8 1.2
16/12:00pm 16.1 10.9 7.3 56 4.4 WSW 24 43 13 23 1012.9 1012.8 1.2
16/11:30am 14.2 10.4 9.2 72 2.6 WSW 19 32 10 17 1013.0 1012.9 1.2
16/11:00am 14.9 11.2 9.5 70 2.8 SW 19 33 10 18 1012.7 1012.6 1.0
16/10:30am 13.5 9.1 8.8 73 2.4 SW 22 41 12 22 1012.7 1012.6 1.0
16/10:00am 13.8 12.0 9.3 74 2.3 SW 9 39 5 21 1012.4 1012.3 0.8
16/09:30am 13.9 10.5 9.3 74 2.3 SW 17 41 9 22 1012.0 1012.0 0.4
16/09:00am 12.5 7.4 9.1 80 1.7 SW 26 46 14 25 1011.7 1011.7 9.8
16/08:30am 14.9 13.4 9.1 68 3.0 W 7 32 4 17 1010.8 1010.8 9.2
16/08:00am 14.2 10.9 7.9 66 3.1 WSW 15 30 8 16 1010.4 1010.4 9.2
16/07:30am 13.4 10.5 8.3 71 2.5 W 13 24 7 13 1009.8 1009.8 9.2
16/07:00am 11.9 8.2 7.8 76 2.0 W 17 35 9 19 1009.6 1009.6 9.2
16/06:30am 12.9 7.8 7.8 71 2.5 WSW 24 50 13 27 1008.9 1008.9 8.8
16/06:22am 13.0 8.7 7.0 67 2.9 WSW 19 50 10 27 1008.9 1008.9 8.8
16/06:00am 13.5 12.6 6.1 61 3.5 CALM 0 0 0 0 1008.5 1008.5 8.8
16/05:30am 14.0 9.7 7.1 63 3.4 W 19 37 10 20 1008.0 1008.0 8.8
16/05:00am 13.8 9.5 7.8 67 3.0 WSW 20 41 11 22 1007.8 1007.8 8.6
16/04:30am 14.2 10.2 6.8 61 3.6 W 17 41 9 22 1007.4 1007.4 8.6
16/04:00am 14.4 12.5 6.7 60 3.7 W 6 39 3 21 1007.1 1007.1 8.6
16/03:30am 13.4 13.2 8.9 74 2.3 CALM 0 0 0 0 1007.0 1007.0 8.6
16/03:00am 13.7 13.8 10.3 80 1.8 CALM 0 0 0 0 1006.8 1006.8 8.6
16/02:30am 13.4 13.6 10.6 83 1.5 CALM 0 0 0 0 1006.6 1006.6 8.6
16/02:00am 13.0 13.5 11.6 91 0.7 CALM 0 0 0 0 1006.5 1006.5 8.6
16/01:30am 12.9 13.4 11.5 91 0.7 CALM 0 0 0 0 1006.2 1006.2 7.8
16/01:00am 15.1 13.0 11.3 78 2.0 WNW 13 24 7 13 1006.6 1006.6 6.8
16/12:30am 15.1 13.1 11.5 79 1.9 W 13 22 7 12 1006.4 1006.4 6.6
16/12:00am 14.6 13.4 12.8 89 1.0 W 11 20 6 11 1006.5 1006.5 6.6
 
Date/Time
WST
Temp
°C
App
Temp
°C
Dew
Point
°C
Rel
Hum
%
Delta-T
°C
Wind Press
QNH
hPa
Press
MSL
hPa
Rain since
9am
mm
Dir  Spd
km/h
Gust
km/h
Spd
kts
Gust
kts
15/11:30pm 14.3 13.5 12.9 91 0.8 WNW 9 19 5 10 1006.6 1006.6 6.6
15/11:00pm 14.4 12.7 12.6 89 1.0 WNW 13 37 7 20 1007.1 1007.1 6.4
15/10:30pm 14.8 13.9 13.7 93 0.6 NW 11 33 6 18 1007.3 1007.3 6.0
15/10:00pm 14.8 15.0 14.3 97 0.3 NW 6 13 3 7 1007.5 1007.5 5.6
15/09:30pm 15.1 14.9 14.8 98 0.2 NW 9 19 5 10 1007.7 1007.7 4.8
15/09:00pm 14.4 13.9 13.8 96 0.3 WNW 9 20 5 11 1008.3 1008.3 4.8
15/08:30pm 14.3 12.9 13.3 94 0.6 N 13 26 7 14 1007.9 1007.9 1.4
15/08:00pm 14.5 13.1 13.4 93 0.6 N 13 20 7 11 1008.3 1008.3 1.4
15/07:30pm 15.3 14.2 13.2 87 1.2 NNE 11 24 6 13 1008.2 1008.2 0.2
15/07:00pm 15.4 13.9 13.2 87 1.2 N 13 22 7 12 1008.2 1008.2 0.2
15/06:30pm 15.7 14.7 13.4 86 1.3 N 11 17 6 9 1008.4 1008.4 0.2
15/06:00pm 15.8 14.4 13.3 85 1.4 N 13 24 7 13 1008.6 1008.6 0.0
15/05:30pm 16.4 14.4 12.6 78 2.1 NNW 15 32 8 17 1008.5 1008.5 0.0
15/05:00pm 17.5 14.5 12.0 70 3.0 NNW 19 35 10 19 1008.5 1008.5 0.0
15/04:30pm 18.1 15.3 11.2 64 3.7 NNW 17 39 9 21 1008.5 1008.5 0.0
15/04:00pm 18.0 14.6 11.1 64 3.7 NNW 20 35 11 19 1008.7 1008.7 0.0
15/03:30pm 18.6 15.9 10.4 59 4.4 NNW 15 28 8 15 1008.8 1008.8 0.0
15/03:00pm 18.4 14.7 10.3 59 4.3 NNW 20 35 11 19 1009.1 1009.1 0.0
15/02:30pm 18.4 14.8 10.0 58 4.5 NNW 19 35 10 19 1009.2 1009.2 0.0

Latest Capital City Observations: Canberra | Sydney | Melbourne | Brisbane | Adelaide | Perth | Hobart | Darwin

Other formats

Comma delimited format used in spreadsheet applications
http://www.bom.gov.au/fwo/IDW60901/IDW60901.94608.axf

JavaScript Object Notation format (JSON) in row-major order
http://www.bom.gov.au/fwo/IDW60901/IDW60901.94608.json

Data quality

Most of these data are generated automatically and are frequently updated. Quality checks on data are not normally performed. It is possible for incorrect values to appear. Refer to information at About Latest Weather Observations and please check the disclaimer before using these data.